sensor_id;sensor_type;location;lat;lon;timestamp;P1;durP1;ratioP1;P2;durP2;ratioP2
18659;SDS011;9459;50.254;19.014;2022-12-07T00:01:34;18.42;;;11.13;;
18659;SDS011;9459;50.254;19.014;2022-12-07T00:04:05;19.55;;;11.38;;
18659;SDS011;9459;50.254;19.014;2022-12-07T00:06:37;18.53;;;11.00;;
18659;SDS011;9459;50.254;19.014;2022-12-07T00:09:06;19.38;;;10.80;;
18659;SDS011;9459;50.254;19.014;2022-12-07T00:11:37;16.75;;;10.90;;
18659;SDS011;9459;50.254;19.014;2022-12-07T00:14:06;17.95;;;10.70;;
18659;SDS011;9459;50.254;19.014;2022-12-07T00:16:35;19.38;;;10.60;;
18659;SDS011;9459;50.254;19.014;2022-12-07T00:19:04;20.75;;;10.70;;
18659;SDS011;9459;50.254;19.014;2022-12-07T00:21:33;20.00;;;10.80;;
18659;SDS011;9459;50.254;19.014;2022-12-07T00:24:04;18.10;;;10.57;;
18659;SDS011;9459;50.254;19.014;2022-12-07T00:26:34;17.17;;;10.25;;
18659;SDS011;9459;50.254;19.014;2022-12-07T00:29:03;16.35;;;10.15;;
18659;SDS011;9459;50.254;19.014;2022-12-07T00:31:33;17.92;;;10.70;;
18659;SDS011;9459;50.254;19.014;2022-12-07T00:34:06;18.02;;;10.48;;
18659;SDS011;9459;50.254;19.014;2022-12-07T00:36:35;17.27;;;10.63;;
18659;SDS011;9459;50.254;19.014;2022-12-07T00:39:04;19.95;;;12.60;;
18659;SDS011;9459;50.254;19.014;2022-12-07T00:41:33;19.92;;;12.18;;
18659;SDS011;9459;50.254;19.014;2022-12-07T00:44:01;20.00;;;12.10;;
18659;SDS011;9459;50.254;19.014;2022-12-07T00:46:29;20.38;;;11.98;;
18659;SDS011;9459;50.254;19.014;2022-12-07T00:48:58;18.65;;;11.40;;
18659;SDS011;9459;50.254;19.014;2022-12-07T00:51:26;18.35;;;12.15;;
18659;SDS011;9459;50.254;19.014;2022-12-07T00:53:54;18.60;;;12.05;;
18659;SDS011;9459;50.254;19.014;2022-12-07T00:56:24;18.38;;;11.65;;
18659;SDS011;9459;50.254;19.014;2022-12-07T00:58:54;19.20;;;13.40;;
18659;SDS011;9459;50.254;19.014;2022-12-07T01:01:25;18.10;;;13.00;;
18659;SDS011;9459;50.254;19.014;2022-12-07T01:03:55;20.17;;;13.88;;
18659;SDS011;9459;50.254;19.014;2022-12-07T01:06:24;20.08;;;12.82;;
18659;SDS011;9459;50.254;19.014;2022-12-07T01:08:52;20.70;;;13.52;;
18659;SDS011;9459;50.254;19.014;2022-12-07T01:11:22;20.50;;;13.18;;
18659;SDS011;9459;50.254;19.014;2022-12-07T01:13:54;18.63;;;13.68;;
18659;SDS011;9459;50.254;19.014;2022-12-07T01:16:25;21.87;;;13.00;;
18659;SDS011;9459;50.254;19.014;2022-12-07T01:18:56;22.25;;;12.68;;
18659;SDS011;9459;50.254;19.014;2022-12-07T01:21:27;18.90;;;11.75;;
18659;SDS011;9459;50.254;19.014;2022-12-07T01:23:57;18.80;;;12.70;;
18659;SDS011;9459;50.254;19.014;2022-12-07T01:26:27;20.67;;;13.70;;
18659;SDS011;9459;50.254;19.014;2022-12-07T01:28:55;21.70;;;15.10;;
18659;SDS011;9459;50.254;19.014;2022-12-07T01:31:26;23.02;;;14.90;;
18659;SDS011;9459;50.254;19.014;2022-12-07T01:33:56;22.58;;;15.13;;
18659;SDS011;9459;50.254;19.014;2022-12-07T01:36:26;25.48;;;16.17;;
18659;SDS011;9459;50.254;19.014;2022-12-07T01:38:56;24.58;;;15.02;;
18659;SDS011;9459;50.254;19.014;2022-12-07T01:41:29;23.20;;;15.00;;
18659;SDS011;9459;50.254;19.014;2022-12-07T01:44:09;22.35;;;16.02;;
18659;SDS011;9459;50.254;19.014;2022-12-07T01:46:40;23.17;;;15.77;;
18659;SDS011;9459;50.254;19.014;2022-12-07T01:49:10;23.55;;;15.60;;
18659;SDS011;9459;50.254;19.014;2022-12-07T01:51:42;23.83;;;16.50;;
18659;SDS011;9459;50.254;19.014;2022-12-07T01:54:11;25.63;;;16.23;;
18659;SDS011;9459;50.254;19.014;2022-12-07T01:56:45;27.13;;;18.13;;
18659;SDS011;9459;50.254;19.014;2022-12-07T01:59:16;28.67;;;18.17;;
18659;SDS011;9459;50.254;19.014;2022-12-07T02:01:46;24.48;;;17.48;;
18659;SDS011;9459;50.254;19.014;2022-12-07T02:04:14;27.50;;;17.45;;
18659;SDS011;9459;50.254;19.014;2022-12-07T02:06:43;26.75;;;16.58;;
18659;SDS011;9459;50.254;19.014;2022-12-07T02:09:12;27.10;;;16.35;;
18659;SDS011;9459;50.254;19.014;2022-12-07T02:11:42;25.88;;;17.80;;
18659;SDS011;9459;50.254;19.014;2022-12-07T02:14:11;29.60;;;18.75;;
18659;SDS011;9459;50.254;19.014;2022-12-07T02:16:43;29.60;;;19.00;;
18659;SDS011;9459;50.254;19.014;2022-12-07T02:19:29;27.88;;;19.30;;
18659;SDS011;9459;50.254;19.014;2022-12-07T02:22:24;28.17;;;18.40;;
18659;SDS011;9459;50.254;19.014;2022-12-07T02:25:07;28.33;;;17.83;;
18659;SDS011;9459;50.254;19.014;2022-12-07T02:30:09;31.58;;;20.05;;
18659;SDS011;9459;50.254;19.014;2022-12-07T02:32:42;31.52;;;20.10;;
18659;SDS011;9459;50.254;19.014;2022-12-07T02:35:14;29.83;;;19.52;;
18659;SDS011;9459;50.254;19.014;2022-12-07T02:37:51;27.88;;;19.02;;
18659;SDS011;9459;50.254;19.014;2022-12-07T02:40:25;34.00;;;20.63;;
18659;SDS011;9459;50.254;19.014;2022-12-07T02:42:59;30.77;;;21.13;;
18659;SDS011;9459;50.254;19.014;2022-12-07T02:45:30;32.67;;;22.13;;
18659;SDS011;9459;50.254;19.014;2022-12-07T02:47:59;32.45;;;22.15;;
18659;SDS011;9459;50.254;19.014;2022-12-07T02:50:28;33.70;;;22.83;;
18659;SDS011;9459;50.254;19.014;2022-12-07T02:52:57;32.30;;;22.42;;
18659;SDS011;9459;50.254;19.014;2022-12-07T02:55:27;36.03;;;23.38;;
18659;SDS011;9459;50.254;19.014;2022-12-07T02:58:05;39.67;;;25.48;;
18659;SDS011;9459;50.254;19.014;2022-12-07T03:00:44;35.45;;;23.42;;
18659;SDS011;9459;50.254;19.014;2022-12-07T03:03:19;35.25;;;23.27;;
18659;SDS011;9459;50.254;19.014;2022-12-07T03:06:03;36.05;;;22.48;;
18659;SDS011;9459;50.254;19.014;2022-12-07T03:08:38;33.33;;;21.45;;
18659;SDS011;9459;50.254;19.014;2022-12-07T03:11:12;31.45;;;21.25;;
18659;SDS011;9459;50.254;19.014;2022-12-07T03:13:48;32.05;;;20.92;;
18659;SDS011;9459;50.254;19.014;2022-12-07T03:16:21;29.38;;;20.13;;
18659;SDS011;9459;50.254;19.014;2022-12-07T03:18:52;29.92;;;19.45;;
18659;SDS011;9459;50.254;19.014;2022-12-07T03:21:25;33.72;;;21.05;;
18659;SDS011;9459;50.254;19.014;2022-12-07T03:26:24;32.95;;;21.25;;
18659;SDS011;9459;50.254;19.014;2022-12-07T03:28:57;38.72;;;23.27;;
18659;SDS011;9459;50.254;19.014;2022-12-07T03:31:30;32.30;;;21.58;;
18659;SDS011;9459;50.254;19.014;2022-12-07T03:34:01;36.03;;;23.95;;
18659;SDS011;9459;50.254;19.014;2022-12-07T03:36:32;34.47;;;22.85;;
18659;SDS011;9459;50.254;19.014;2022-12-07T03:39:09;32.65;;;21.52;;
18659;SDS011;9459;50.254;19.014;2022-12-07T03:41:43;36.88;;;23.92;;
18659;SDS011;9459;50.254;19.014;2022-12-07T03:44:12;36.25;;;24.98;;
18659;SDS011;9459;50.254;19.014;2022-12-07T03:46:44;35.13;;;22.55;;
18659;SDS011;9459;50.254;19.014;2022-12-07T03:49:17;37.00;;;24.17;;
18659;SDS011;9459;50.254;19.014;2022-12-07T03:51:51;40.33;;;25.55;;
18659;SDS011;9459;50.254;19.014;2022-12-07T03:54:24;35.15;;;22.63;;
18659;SDS011;9459;50.254;19.014;2022-12-07T03:56:54;37.88;;;24.13;;
18659;SDS011;9459;50.254;19.014;2022-12-07T03:59:24;41.05;;;25.17;;
18659;SDS011;9459;50.254;19.014;2022-12-07T04:01:55;38.97;;;24.65;;
18659;SDS011;9459;50.254;19.014;2022-12-07T04:04:25;41.05;;;24.90;;
18659;SDS011;9459;50.254;19.014;2022-12-07T04:06:53;42.92;;;26.95;;
18659;SDS011;9459;50.254;19.014;2022-12-07T04:09:22;47.08;;;27.40;;
18659;SDS011;9459;50.254;19.014;2022-12-07T04:11:50;44.15;;;27.40;;
18659;SDS011;9459;50.254;19.014;2022-12-07T04:14:19;46.55;;;27.90;;
18659;SDS011;9459;50.254;19.014;2022-12-07T04:16:47;44.70;;;26.63;;
18659;SDS011;9459;50.254;19.014;2022-12-07T04:19:19;41.08;;;26.27;;
18659;SDS011;9459;50.254;19.014;2022-12-07T04:21:49;45.92;;;27.40;;
18659;SDS011;9459;50.254;19.014;2022-12-07T04:24:17;43.40;;;25.92;;
18659;SDS011;9459;50.254;19.014;2022-12-07T04:26:46;41.13;;;25.25;;
18659;SDS011;9459;50.254;19.014;2022-12-07T04:29:15;40.13;;;23.85;;
18659;SDS011;9459;50.254;19.014;2022-12-07T04:31:43;36.08;;;21.85;;
18659;SDS011;9459;50.254;19.014;2022-12-07T04:34:12;35.92;;;21.58;;
18659;SDS011;9459;50.254;19.014;2022-12-07T04:36:43;33.83;;;19.92;;
18659;SDS011;9459;50.254;19.014;2022-12-07T04:39:16;33.83;;;20.95;;
18659;SDS011;9459;50.254;19.014;2022-12-07T04:41:47;36.20;;;21.23;;
18659;SDS011;9459;50.254;19.014;2022-12-07T04:44:16;31.83;;;20.40;;
18659;SDS011;9459;50.254;19.014;2022-12-07T04:46:45;32.92;;;20.20;;
18659;SDS011;9459;50.254;19.014;2022-12-07T04:49:14;33.58;;;21.83;;
18659;SDS011;9459;50.254;19.014;2022-12-07T04:51:44;32.90;;;20.85;;
18659;SDS011;9459;50.254;19.014;2022-12-07T04:54:14;33.03;;;19.87;;
18659;SDS011;9459;50.254;19.014;2022-12-07T04:56:43;33.17;;;20.88;;
18659;SDS011;9459;50.254;19.014;2022-12-07T04:59:12;33.13;;;20.23;;
18659;SDS011;9459;50.254;19.014;2022-12-07T05:01:40;26.05;;;16.77;;
18659;SDS011;9459;50.254;19.014;2022-12-07T05:04:09;25.60;;;16.65;;
18659;SDS011;9459;50.254;19.014;2022-12-07T05:06:37;24.40;;;15.88;;
18659;SDS011;9459;50.254;19.014;2022-12-07T05:09:07;26.17;;;16.45;;
18659;SDS011;9459;50.254;19.014;2022-12-07T05:11:36;25.67;;;15.30;;
18659;SDS011;9459;50.254;19.014;2022-12-07T05:14:08;25.20;;;15.10;;
18659;SDS011;9459;50.254;19.014;2022-12-07T05:16:38;26.20;;;15.73;;
18659;SDS011;9459;50.254;19.014;2022-12-07T05:19:08;23.33;;;14.43;;
18659;SDS011;9459;50.254;19.014;2022-12-07T05:21:37;26.85;;;15.43;;
18659;SDS011;9459;50.254;19.014;2022-12-07T05:24:08;22.60;;;14.90;;
18659;SDS011;9459;50.254;19.014;2022-12-07T05:26:38;24.05;;;15.93;;
18659;SDS011;9459;50.254;19.014;2022-12-07T05:29:07;22.00;;;14.65;;
18659;SDS011;9459;50.254;19.014;2022-12-07T05:31:35;22.25;;;15.20;;
18659;SDS011;9459;50.254;19.014;2022-12-07T05:34:04;25.65;;;15.98;;
18659;SDS011;9459;50.254;19.014;2022-12-07T05:36:32;27.20;;;15.77;;
18659;SDS011;9459;50.254;19.014;2022-12-07T05:39:00;22.70;;;15.45;;
18659;SDS011;9459;50.254;19.014;2022-12-07T05:41:30;22.92;;;14.77;;
18659;SDS011;9459;50.254;19.014;2022-12-07T05:44:16;22.27;;;14.15;;
18659;SDS011;9459;50.254;19.014;2022-12-07T05:46:44;24.42;;;14.90;;
18659;SDS011;9459;50.254;19.014;2022-12-07T05:49:13;23.50;;;14.90;;
18659;SDS011;9459;50.254;19.014;2022-12-07T05:51:41;29.02;;;17.33;;
18659;SDS011;9459;50.254;19.014;2022-12-07T05:54:10;29.20;;;17.90;;
18659;SDS011;9459;50.254;19.014;2022-12-07T05:56:39;32.97;;;21.90;;
18659;SDS011;9459;50.254;19.014;2022-12-07T05:59:08;35.75;;;22.52;;
18659;SDS011;9459;50.254;19.014;2022-12-07T06:01:54;34.00;;;20.33;;
18659;SDS011;9459;50.254;19.014;2022-12-07T06:04:23;32.97;;;19.95;;
18659;SDS011;9459;50.254;19.014;2022-12-07T06:06:53;29.85;;;19.10;;
18659;SDS011;9459;50.254;19.014;2022-12-07T06:09:21;28.08;;;17.70;;
18659;SDS011;9459;50.254;19.014;2022-12-07T06:11:52;31.23;;;18.98;;
18659;SDS011;9459;50.254;19.014;2022-12-07T06:14:42;29.40;;;19.23;;
18659;SDS011;9459;50.254;19.014;2022-12-07T06:17:11;34.08;;;19.80;;
18659;SDS011;9459;50.254;19.014;2022-12-07T06:19:40;36.40;;;20.75;;
18659;SDS011;9459;50.254;19.014;2022-12-07T06:22:09;35.13;;;18.98;;
18659;SDS011;9459;50.254;19.014;2022-12-07T06:24:39;32.88;;;19.92;;
18659;SDS011;9459;50.254;19.014;2022-12-07T06:27:09;34.03;;;19.27;;
18659;SDS011;9459;50.254;19.014;2022-12-07T06:29:38;30.90;;;18.35;;
18659;SDS011;9459;50.254;19.014;2022-12-07T06:32:06;26.30;;;15.70;;
18659;SDS011;9459;50.254;19.014;2022-12-07T06:34:35;28.30;;;16.08;;
18659;SDS011;9459;50.254;19.014;2022-12-07T06:37:03;28.17;;;16.27;;
18659;SDS011;9459;50.254;19.014;2022-12-07T06:39:31;28.75;;;16.67;;
18659;SDS011;9459;50.254;19.014;2022-12-07T06:41:59;25.77;;;15.05;;
18659;SDS011;9459;50.254;19.014;2022-12-07T06:44:29;22.98;;;14.18;;
18659;SDS011;9459;50.254;19.014;2022-12-07T06:46:58;20.20;;;13.27;;
18659;SDS011;9459;50.254;19.014;2022-12-07T06:49:46;19.67;;;13.10;;
18659;SDS011;9459;50.254;19.014;2022-12-07T06:52:14;20.77;;;13.23;;
18659;SDS011;9459;50.254;19.014;2022-12-07T06:54:43;21.77;;;14.80;;
18659;SDS011;9459;50.254;19.014;2022-12-07T06:57:11;22.58;;;15.40;;
18659;SDS011;9459;50.254;19.014;2022-12-07T06:59:41;24.23;;;15.77;;
18659;SDS011;9459;50.254;19.014;2022-12-07T07:02:09;22.02;;;15.52;;
18659;SDS011;9459;50.254;19.014;2022-12-07T07:04:38;23.92;;;14.80;;
18659;SDS011;9459;50.254;19.014;2022-12-07T07:07:06;20.27;;;13.80;;
18659;SDS011;9459;50.254;19.014;2022-12-07T07:09:34;21.00;;;13.98;;
18659;SDS011;9459;50.254;19.014;2022-12-07T07:12:03;19.52;;;14.43;;
18659;SDS011;9459;50.254;19.014;2022-12-07T07:14:31;19.50;;;13.48;;
18659;SDS011;9459;50.254;19.014;2022-12-07T07:17:01;23.13;;;14.77;;
18659;SDS011;9459;50.254;19.014;2022-12-07T07:19:30;20.38;;;14.18;;
18659;SDS011;9459;50.254;19.014;2022-12-07T07:21:58;22.90;;;15.68;;
18659;SDS011;9459;50.254;19.014;2022-12-07T07:24:27;20.95;;;15.30;;
18659;SDS011;9459;50.254;19.014;2022-12-07T07:26:55;24.00;;;15.95;;
18659;SDS011;9459;50.254;19.014;2022-12-07T07:29:23;21.88;;;15.13;;
18659;SDS011;9459;50.254;19.014;2022-12-07T07:31:51;21.85;;;13.75;;
18659;SDS011;9459;50.254;19.014;2022-12-07T07:34:21;21.38;;;14.07;;
18659;SDS011;9459;50.254;19.014;2022-12-07T07:36:49;20.38;;;13.50;;
18659;SDS011;9459;50.254;19.014;2022-12-07T07:39:18;18.90;;;14.02;;
18659;SDS011;9459;50.254;19.014;2022-12-07T07:41:46;21.33;;;14.45;;
18659;SDS011;9459;50.254;19.014;2022-12-07T07:44:14;23.50;;;15.75;;
18659;SDS011;9459;50.254;19.014;2022-12-07T07:46:43;31.77;;;18.33;;
18659;SDS011;9459;50.254;19.014;2022-12-07T07:49:11;31.80;;;17.88;;
18659;SDS011;9459;50.254;19.014;2022-12-07T07:51:41;24.63;;;17.08;;
18659;SDS011;9459;50.254;19.014;2022-12-07T07:54:10;23.75;;;15.95;;
18659;SDS011;9459;50.254;19.014;2022-12-07T07:56:39;26.02;;;16.88;;
18659;SDS011;9459;50.254;19.014;2022-12-07T07:59:07;26.10;;;16.92;;
18659;SDS011;9459;50.254;19.014;2022-12-07T08:01:36;32.25;;;18.08;;
18659;SDS011;9459;50.254;19.014;2022-12-07T08:04:04;31.02;;;20.52;;
18659;SDS011;9459;50.254;19.014;2022-12-07T08:06:33;30.55;;;20.95;;
18659;SDS011;9459;50.254;19.014;2022-12-07T08:09:02;32.97;;;20.48;;
18659;SDS011;9459;50.254;19.014;2022-12-07T08:11:32;32.20;;;20.35;;
18659;SDS011;9459;50.254;19.014;2022-12-07T08:14:00;29.88;;;18.92;;
18659;SDS011;9459;50.254;19.014;2022-12-07T08:16:29;30.48;;;18.02;;
18659;SDS011;9459;50.254;19.014;2022-12-07T08:18:58;27.88;;;17.27;;
18659;SDS011;9459;50.254;19.014;2022-12-07T08:21:26;29.20;;;18.40;;
18659;SDS011;9459;50.254;19.014;2022-12-07T08:23:55;27.95;;;17.83;;
18659;SDS011;9459;50.254;19.014;2022-12-07T08:26:26;24.33;;;16.83;;
18659;SDS011;9459;50.254;19.014;2022-12-07T08:31:24;34.15;;;19.45;;
18659;SDS011;9459;50.254;19.014;2022-12-07T08:33:55;28.70;;;16.75;;
18659;SDS011;9459;50.254;19.014;2022-12-07T08:36:23;24.98;;;16.60;;
18659;SDS011;9459;50.254;19.014;2022-12-07T08:38:52;33.40;;;19.60;;
18659;SDS011;9459;50.254;19.014;2022-12-07T08:41:44;30.30;;;16.85;;
18659;SDS011;9459;50.254;19.014;2022-12-07T08:44:13;45.92;;;24.33;;
18659;SDS011;9459;50.254;19.014;2022-12-07T08:46:41;51.17;;;25.48;;
18659;SDS011;9459;50.254;19.014;2022-12-07T08:49:13;29.77;;;19.23;;
18659;SDS011;9459;50.254;19.014;2022-12-07T08:51:43;34.40;;;20.92;;
18659;SDS011;9459;50.254;19.014;2022-12-07T08:54:13;31.33;;;21.67;;
18659;SDS011;9459;50.254;19.014;2022-12-07T08:56:45;27.67;;;19.63;;
18659;SDS011;9459;50.254;19.014;2022-12-07T08:59:21;24.65;;;16.45;;
18659;SDS011;9459;50.254;19.014;2022-12-07T09:01:50;27.17;;;16.90;;
18659;SDS011;9459;50.254;19.014;2022-12-07T09:04:18;21.98;;;14.85;;
18659;SDS011;9459;50.254;19.014;2022-12-07T09:06:47;18.40;;;12.10;;
18659;SDS011;9459;50.254;19.014;2022-12-07T09:09:16;19.17;;;11.90;;
18659;SDS011;9459;50.254;19.014;2022-12-07T09:11:45;18.75;;;12.07;;
18659;SDS011;9459;50.254;19.014;2022-12-07T09:14:14;17.98;;;11.65;;
18659;SDS011;9459;50.254;19.014;2022-12-07T09:16:43;18.42;;;12.75;;
18659;SDS011;9459;50.254;19.014;2022-12-07T09:19:12;24.98;;;15.52;;
18659;SDS011;9459;50.254;19.014;2022-12-07T09:21:41;34.35;;;22.52;;
18659;SDS011;9459;50.254;19.014;2022-12-07T09:24:11;26.90;;;17.85;;
18659;SDS011;9459;50.254;19.014;2022-12-07T09:26:39;25.77;;;17.05;;
18659;SDS011;9459;50.254;19.014;2022-12-07T09:29:09;24.05;;;14.82;;
18659;SDS011;9459;50.254;19.014;2022-12-07T09:31:37;23.42;;;14.27;;
18659;SDS011;9459;50.254;19.014;2022-12-07T09:34:06;20.55;;;14.60;;
18659;SDS011;9459;50.254;19.014;2022-12-07T09:36:34;22.02;;;14.30;;
18659;SDS011;9459;50.254;19.014;2022-12-07T09:39:03;24.70;;;13.85;;
18659;SDS011;9459;50.254;19.014;2022-12-07T09:41:32;19.83;;;12.85;;
18659;SDS011;9459;50.254;19.014;2022-12-07T09:44:03;20.92;;;12.90;;
18659;SDS011;9459;50.254;19.014;2022-12-07T09:46:35;19.58;;;12.75;;
18659;SDS011;9459;50.254;19.014;2022-12-07T09:49:05;21.27;;;13.35;;
18659;SDS011;9459;50.254;19.014;2022-12-07T09:51:38;23.98;;;13.73;;
18659;SDS011;9459;50.254;19.014;2022-12-07T09:54:08;21.50;;;13.75;;
18659;SDS011;9459;50.254;19.014;2022-12-07T09:56:38;22.45;;;13.90;;
18659;SDS011;9459;50.254;19.014;2022-12-07T09:59:09;21.00;;;13.35;;
18659;SDS011;9459;50.254;19.014;2022-12-07T10:01:43;22.90;;;13.65;;
18659;SDS011;9459;50.254;19.014;2022-12-07T10:04:13;20.00;;;13.30;;
18659;SDS011;9459;50.254;19.014;2022-12-07T10:06:44;22.70;;;14.30;;
18659;SDS011;9459;50.254;19.014;2022-12-07T10:09:15;23.90;;;14.27;;
18659;SDS011;9459;50.254;19.014;2022-12-07T10:12:00;21.10;;;12.50;;
18659;SDS011;9459;50.254;19.014;2022-12-07T10:14:31;20.55;;;13.18;;
18659;SDS011;9459;50.254;19.014;2022-12-07T10:17:30;20.52;;;12.35;;
18659;SDS011;9459;50.254;19.014;2022-12-07T10:20:17;20.20;;;12.35;;
18659;SDS011;9459;50.254;19.014;2022-12-07T10:22:54;22.55;;;13.02;;
18659;SDS011;9459;50.254;19.014;2022-12-07T10:25:25;18.55;;;11.77;;
18659;SDS011;9459;50.254;19.014;2022-12-07T10:27:58;17.35;;;9.48;;
18659;SDS011;9459;50.254;19.014;2022-12-07T10:30:29;15.98;;;10.57;;
18659;SDS011;9459;50.254;19.014;2022-12-07T10:32:59;15.52;;;10.18;;
18659;SDS011;9459;50.254;19.014;2022-12-07T10:35:28;15.05;;;9.77;;
18659;SDS011;9459;50.254;19.014;2022-12-07T10:37:59;16.70;;;10.52;;
18659;SDS011;9459;50.254;19.014;2022-12-07T10:40:29;18.13;;;9.32;;
18659;SDS011;9459;50.254;19.014;2022-12-07T10:43:00;14.40;;;9.25;;
18659;SDS011;9459;50.254;19.014;2022-12-07T10:45:32;13.90;;;9.00;;
18659;SDS011;9459;50.254;19.014;2022-12-07T10:48:10;15.18;;;7.72;;
18659;SDS011;9459;50.254;19.014;2022-12-07T10:50:53;13.23;;;8.15;;
18659;SDS011;9459;50.254;19.014;2022-12-07T10:53:34;26.98;;;10.27;;
18659;SDS011;9459;50.254;19.014;2022-12-07T10:56:16;18.40;;;9.57;;
18659;SDS011;9459;50.254;19.014;2022-12-07T10:59:16;11.80;;;7.40;;
18659;SDS011;9459;50.254;19.014;2022-12-07T11:01:54;11.95;;;8.52;;
18659;SDS011;9459;50.254;19.014;2022-12-07T11:04:29;14.15;;;8.30;;
18659;SDS011;9459;50.254;19.014;2022-12-07T11:07:05;13.48;;;8.05;;
18659;SDS011;9459;50.254;19.014;2022-12-07T11:09:47;14.98;;;9.80;;
18659;SDS011;9459;50.254;19.014;2022-12-07T11:12:41;12.63;;;8.93;;
18659;SDS011;9459;50.254;19.014;2022-12-07T11:15:17;15.48;;;10.13;;
18659;SDS011;9459;50.254;19.014;2022-12-07T11:17:48;20.58;;;13.02;;
18659;SDS011;9459;50.254;19.014;2022-12-07T11:20:29;19.85;;;12.02;;
18659;SDS011;9459;50.254;19.014;2022-12-07T11:23:04;18.27;;;11.88;;
18659;SDS011;9459;50.254;19.014;2022-12-07T11:25:42;17.77;;;10.77;;
18659;SDS011;9459;50.254;19.014;2022-12-07T11:28:20;16.27;;;10.75;;
18659;SDS011;9459;50.254;19.014;2022-12-07T11:30:56;16.52;;;9.95;;
18659;SDS011;9459;50.254;19.014;2022-12-07T11:33:32;16.70;;;9.98;;
18659;SDS011;9459;50.254;19.014;2022-12-07T11:36:07;18.05;;;12.10;;
18659;SDS011;9459;50.254;19.014;2022-12-07T11:38:45;16.38;;;11.32;;
18659;SDS011;9459;50.254;19.014;2022-12-07T11:41:17;15.43;;;9.98;;
18659;SDS011;9459;50.254;19.014;2022-12-07T11:43:50;16.58;;;10.27;;
18659;SDS011;9459;50.254;19.014;2022-12-07T11:46:22;16.35;;;10.45;;
18659;SDS011;9459;50.254;19.014;2022-12-07T11:48:55;11.80;;;8.93;;
18659;SDS011;9459;50.254;19.014;2022-12-07T11:51:30;16.83;;;10.70;;
18659;SDS011;9459;50.254;19.014;2022-12-07T11:54:01;20.05;;;13.38;;
18659;SDS011;9459;50.254;19.014;2022-12-07T11:56:31;20.50;;;13.48;;
18659;SDS011;9459;50.254;19.014;2022-12-07T11:59:07;19.23;;;12.05;;
18659;SDS011;9459;50.254;19.014;2022-12-07T12:01:42;17.65;;;11.48;;
18659;SDS011;9459;50.254;19.014;2022-12-07T12:04:19;15.93;;;11.85;;
18659;SDS011;9459;50.254;19.014;2022-12-07T12:06:54;23.63;;;14.43;;
18659;SDS011;9459;50.254;19.014;2022-12-07T12:09:23;22.50;;;14.43;;
18659;SDS011;9459;50.254;19.014;2022-12-07T12:15:15;18.67;;;11.65;;
18659;SDS011;9459;50.254;19.014;2022-12-07T12:20:56;17.30;;;11.18;;
18659;SDS011;9459;50.254;19.014;2022-12-07T12:23:29;13.85;;;9.48;;
18659;SDS011;9459;50.254;19.014;2022-12-07T12:26:05;11.25;;;8.52;;
18659;SDS011;9459;50.254;19.014;2022-12-07T12:28:35;12.95;;;9.85;;
18659;SDS011;9459;50.254;19.014;2022-12-07T12:33:44;12.10;;;8.48;;
18659;SDS011;9459;50.254;19.014;2022-12-07T12:36:22;14.60;;;8.23;;
18659;SDS011;9459;50.254;19.014;2022-12-07T12:39:10;9.90;;;7.63;;
18659;SDS011;9459;50.254;19.014;2022-12-07T12:41:59;10.20;;;8.07;;
18659;SDS011;9459;50.254;19.014;2022-12-07T12:44:38;12.25;;;8.32;;
18659;SDS011;9459;50.254;19.014;2022-12-07T12:50:18;12.43;;;8.40;;
18659;SDS011;9459;50.254;19.014;2022-12-07T12:52:49;11.60;;;7.97;;
18659;SDS011;9459;50.254;19.014;2022-12-07T12:58:36;10.88;;;7.88;;
18659;SDS011;9459;50.254;19.014;2022-12-07T13:10:24;19.60;;;11.63;;
18659;SDS011;9459;50.254;19.014;2022-12-07T13:25:45;25.42;;;12.18;;
18659;SDS011;9459;50.254;19.014;2022-12-07T13:28:18;17.88;;;7.97;;
18659;SDS011;9459;50.254;19.014;2022-12-07T13:30:50;14.40;;;7.82;;
18659;SDS011;9459;50.254;19.014;2022-12-07T13:33:27;16.98;;;8.82;;
18659;SDS011;9459;50.254;19.014;2022-12-07T13:35:56;12.18;;;8.63;;
18659;SDS011;9459;50.254;19.014;2022-12-07T13:38:27;15.23;;;9.93;;
18659;SDS011;9459;50.254;19.014;2022-12-07T13:41:04;12.13;;;9.48;;
18659;SDS011;9459;50.254;19.014;2022-12-07T13:43:44;16.48;;;8.75;;
18659;SDS011;9459;50.254;19.014;2022-12-07T13:46:19;13.05;;;8.85;;
18659;SDS011;9459;50.254;19.014;2022-12-07T13:48:52;13.05;;;7.45;;
18659;SDS011;9459;50.254;19.014;2022-12-07T13:51:22;12.48;;;8.38;;
18659;SDS011;9459;50.254;19.014;2022-12-07T13:56:22;12.68;;;8.25;;
18659;SDS011;9459;50.254;19.014;2022-12-07T13:58:54;15.95;;;8.25;;
18659;SDS011;9459;50.254;19.014;2022-12-07T14:01:25;17.17;;;10.63;;
18659;SDS011;9459;50.254;19.014;2022-12-07T14:03:54;22.83;;;12.73;;
18659;SDS011;9459;50.254;19.014;2022-12-07T14:06:23;14.98;;;9.60;;
18659;SDS011;9459;50.254;19.014;2022-12-07T14:09:06;14.30;;;8.85;;
18659;SDS011;9459;50.254;19.014;2022-12-07T14:11:36;11.85;;;7.43;;
18659;SDS011;9459;50.254;19.014;2022-12-07T14:14:05;15.10;;;9.35;;
18659;SDS011;9459;50.254;19.014;2022-12-07T14:16:35;19.08;;;10.10;;
18659;SDS011;9459;50.254;19.014;2022-12-07T14:19:06;19.70;;;10.18;;
18659;SDS011;9459;50.254;19.014;2022-12-07T14:27:52;18.90;;;10.52;;
18659;SDS011;9459;50.254;19.014;2022-12-07T14:30:24;25.17;;;13.48;;
18659;SDS011;9459;50.254;19.014;2022-12-07T14:32:56;28.73;;;12.60;;
18659;SDS011;9459;50.254;19.014;2022-12-07T14:35:27;26.05;;;12.30;;
18659;SDS011;9459;50.254;19.014;2022-12-07T14:37:55;26.17;;;13.25;;
18659;SDS011;9459;50.254;19.014;2022-12-07T14:40:25;31.33;;;13.52;;
18659;SDS011;9459;50.254;19.014;2022-12-07T14:42:55;27.33;;;11.85;;
18659;SDS011;9459;50.254;19.014;2022-12-07T14:45:25;25.13;;;10.52;;
18659;SDS011;9459;50.254;19.014;2022-12-07T14:47:55;28.05;;;11.10;;
18659;SDS011;9459;50.254;19.014;2022-12-07T14:50:44;28.75;;;10.80;;
18659;SDS011;9459;50.254;19.014;2022-12-07T14:53:35;25.15;;;10.45;;
18659;SDS011;9459;50.254;19.014;2022-12-07T14:58:33;20.17;;;8.93;;
18659;SDS011;9459;50.254;19.014;2022-12-07T15:01:02;18.67;;;9.20;;
18659;SDS011;9459;50.254;19.014;2022-12-07T15:03:32;18.85;;;8.98;;
18659;SDS011;9459;50.254;19.014;2022-12-07T15:06:04;19.75;;;11.88;;
18659;SDS011;9459;50.254;19.014;2022-12-07T15:08:33;29.38;;;16.58;;
18659;SDS011;9459;50.254;19.014;2022-12-07T15:11:02;29.67;;;15.98;;
18659;SDS011;9459;50.254;19.014;2022-12-07T15:13:30;27.05;;;14.70;;
18659;SDS011;9459;50.254;19.014;2022-12-07T15:16:16;20.23;;;11.88;;
18659;SDS011;9459;50.254;19.014;2022-12-07T15:18:49;24.58;;;13.95;;
18659;SDS011;9459;50.254;19.014;2022-12-07T15:21:38;17.07;;;10.70;;
18659;SDS011;9459;50.254;19.014;2022-12-07T15:24:08;17.02;;;9.73;;
18659;SDS011;9459;50.254;19.014;2022-12-07T15:26:38;16.77;;;8.52;;
18659;SDS011;9459;50.254;19.014;2022-12-07T15:29:07;11.80;;;7.10;;
18659;SDS011;9459;50.254;19.014;2022-12-07T15:31:36;11.80;;;7.18;;
18659;SDS011;9459;50.254;19.014;2022-12-07T15:34:24;14.45;;;8.52;;
18659;SDS011;9459;50.254;19.014;2022-12-07T15:37:05;9.80;;;6.88;;
18659;SDS011;9459;50.254;19.014;2022-12-07T15:39:33;12.40;;;7.53;;
18659;SDS011;9459;50.254;19.014;2022-12-07T15:42:02;14.02;;;7.13;;
18659;SDS011;9459;50.254;19.014;2022-12-07T15:44:31;11.80;;;6.60;;
18659;SDS011;9459;50.254;19.014;2022-12-07T15:47:17;13.45;;;6.93;;